Time;durP1;ratioP1;P1;durP2;ratioP2;P2;SDS_P1;SDS_P2;PMS_P1;PMS_P2;Temp;Humidity;BMP_temperature;BMP_pressure;BME280_temperature;BME280_humidity;BME280_pressure;Samples;Min_cycle;Max_cycle;Signal;HPM_P1;HPM_P2
2021/09/22 00:02:36;;;;;;;;;;;6.80;99.90;;;;;;8331488;28;19948;-63
2021/09/22 00:06:36;;;;;;;;;;;6.60;99.90;;;;;;8330743;28;19931;-64
2021/09/22 00:10:37;;;;;;;;;;;6.60;99.90;;;;;;8331261;28;19916;-64
2021/09/22 00:14:37;;;;;;;;;;;6.70;99.90;;;;;;8313414;28;19955;-63
2021/09/22 00:18:38;;;;;;;;;;;6.60;99.90;;;;;;8330926;28;20373;-64
2021/09/22 00:22:38;;;;;;;;;;;6.50;99.90;;;;;;8330711;28;20431;-63
2021/09/22 00:26:39;;;;;;;;;;;6.70;99.90;;;;;;8350707;28;20523;-64
2021/09/22 00:30:39;;;;;;;;;;;6.40;99.90;;;;;;8360676;28;19916;-63
2021/09/22 00:34:40;;;;;;;;;;;6.30;99.90;;;;;;8342294;28;20055;-63
2021/09/22 00:38:40;;;;;;;;;;;6.30;99.90;;;;;;8360500;28;19908;-64
2021/09/22 00:42:41;;;;;;;;;;;6.20;99.90;;;;;;8349716;28;20377;-63
2021/09/22 00:46:41;;;;;;;;;;;6.20;99.90;;;;;;8327250;28;19909;-63
2021/09/22 00:50:42;;;;;;;;;;;6.10;99.90;;;;;;8327126;28;19919;-63
2021/09/22 00:54:42;;;;;;;;;;;6.00;99.90;;;;;;8326836;28;19909;-63
2021/09/22 00:58:43;;;;;;;;;;;6.00;99.90;;;;;;8325824;28;19913;-64
2021/09/22 01:02:47;;;;;;;;;;;5.90;99.90;;;;;;8326954;28;20357;-63
2021/09/22 01:06:48;;;;;;;;;;;6.00;99.90;;;;;;8326020;28;19923;-65
2021/09/22 01:10:49;;;;;;;;;;;6.10;99.90;;;;;;8326487;28;19909;-65
2021/09/22 01:14:49;;;;;;;;;;;6.10;99.90;;;;;;8326126;28;19905;-65
2021/09/22 01:18:50;;;;;;;;;;;5.90;99.90;;;;;;8333714;28;19909;-65
2021/09/22 01:22:50;;;;;;;;;;;6.00;99.90;;;;;;8359752;28;19916;-65
2021/09/22 01:26:51;;;;;;;;;;;5.90;99.90;;;;;;8359382;28;19970;-65
2021/09/22 01:30:52;;;;;;;;;;;5.90;99.90;;;;;;8341319;28;19957;-66
2021/09/22 01:34:52;;;;;;;;;;;5.90;99.90;;;;;;8340741;28;19918;-66
2021/09/22 01:38:53;;;;;;;;;;;5.70;99.90;;;;;;8340800;28;19908;-65
2021/09/22 01:42:53;;;;;;;;;;;6.10;99.90;;;;;;8358453;28;19909;-65
2021/09/22 01:46:54;;;;;;;;;;;6.10;99.90;;;;;;8358496;28;19948;-65
2021/09/22 01:50:55;;;;;;;;;;;5.90;99.90;;;;;;8340013;28;19966;-65
2021/09/22 01:54:55;;;;;;;;;;;5.90;99.90;;;;;;8339790;28;19915;-65
2021/09/22 01:58:56;;;;;;;;;;;5.80;99.90;;;;;;8357926;28;19908;-66
2021/09/22 02:02:56;;;;;;;;;;;5.60;99.90;;;;;;8357886;28;19912;-66
2021/09/22 02:06:57;;;;;;;;;;;5.60;99.90;;;;;;8357133;28;19919;-66
2021/09/22 02:10:57;;;;;;;;;;;5.60;99.90;;;;;;8339730;28;19916;-65
2021/09/22 02:14:58;;;;;;;;;;;5.60;99.90;;;;;;8356174;28;19909;-66
2021/09/22 02:18:58;;;;;;;;;;;5.70;99.90;;;;;;8349825;28;19916;-65
2021/09/22 02:22:58;;;;;;;;;;;5.80;99.90;;;;;;8357180;28;19971;-66
2021/09/22 02:26:59;;;;;;;;;;;5.80;99.90;;;;;;8356485;28;20323;-65
2021/09/22 02:31:00;;;;;;;;;;;5.50;99.90;;;;;;8356821;28;20384;-65
2021/09/22 02:35:00;;;;;;;;;;;5.50;99.90;;;;;;8356826;28;20019;-65
2021/09/22 02:39:01;;;;;;;;;;;5.50;99.90;;;;;;8338791;28;20354;-65
2021/09/22 02:43:01;;;;;;;;;;;5.70;99.90;;;;;;8356448;28;19909;-65
2021/09/22 02:47:02;;;;;;;;;;;5.60;99.90;;;;;;8338134;28;20323;-65
2021/09/22 02:51:03;;;;;;;;;;;5.60;99.90;;;;;;8323440;28;19952;-65
2021/09/22 02:55:03;;;;;;;;;;;5.60;99.90;;;;;;8325049;28;19967;-65
2021/09/22 02:59:04;;;;;;;;;;;5.30;99.90;;;;;;8326003;28;19999;-65
2021/09/22 03:03:05;;;;;;;;;;;5.40;99.90;;;;;;8348060;28;20422;-65
2021/09/22 03:07:05;;;;;;;;;;;5.20;99.90;;;;;;8339567;28;19927;-66
2021/09/22 03:11:08;;;;;;;;;;;5.30;99.90;;;;;;8338742;28;19920;-65
2021/09/22 03:15:09;;;;;;;;;;;5.50;99.90;;;;;;8340617;28;19905;-65
2021/09/22 03:19:09;;;;;;;;;;;5.70;99.90;;;;;;8341660;28;19908;-65
2021/09/22 03:23:10;;;;;;;;;;;5.60;99.90;;;;;;8335847;28;19951;-65
2021/09/22 03:27:10;;;;;;;;;;;5.50;99.90;;;;;;8314056;28;19909;-66
2021/09/22 03:31:11;;;;;;;;;;;5.50;99.90;;;;;;8332303;28;20019;-65
2021/09/22 03:35:12;;;;;;;;;;;5.40;99.90;;;;;;8333077;28;19947;-65
2021/09/22 03:39:13;;;;;;;;;;;5.70;99.90;;;;;;8365227;28;19908;-65
2021/09/22 03:43:14;;;;;;;;;;;5.70;99.90;;;;;;8365105;28;19908;-65
2021/09/22 03:47:14;;;;;;;;;;;5.50;99.90;;;;;;8348671;28;19909;-65
2021/09/22 03:51:15;;;;;;;;;;;5.20;99.90;;;;;;8331863;28;19919;-65
2021/09/22 03:55:15;;;;;;;;;;;5.20;99.90;;;;;;8361468;28;20468;-65
2021/09/22 03:59:16;;;;;;;;;;;5.20;99.90;;;;;;8339046;28;19955;-65
2021/09/22 04:03:16;;;;;;;;;;;5.20;99.90;;;;;;8329629;28;19905;-65
2021/09/22 04:07:17;;;;;;;;;;;5.20;99.90;;;;;;8355979;23;19928;-63
2021/09/22 04:11:17;;;;;;;;;;;5.20;99.90;;;;;;8346337;28;19923;-65
2021/09/22 04:15:18;;;;;;;;;;;5.20;99.90;;;;;;8363830;28;19947;-65
2021/09/22 04:19:18;;;;;;;;;;;5.30;99.90;;;;;;8346520;28;19909;-65
2021/09/22 04:23:19;;;;;;;;;;;5.30;99.90;;;;;;8331021;28;19908;-65
2021/09/22 04:27:19;;;;;;;;;;;5.10;99.90;;;;;;8330492;28;20288;-65
2021/09/22 04:31:20;;;;;;;;;;;5.00;99.90;;;;;;8329719;28;19921;-65
2021/09/22 04:35:20;;;;;;;;;;;5.10;99.90;;;;;;8343247;28;20408;-65
2021/09/22 04:39:21;;;;;;;;;;;4.90;99.90;;;;;;8351835;28;20340;-65
2021/09/22 04:43:21;;;;;;;;;;;5.10;99.90;;;;;;8350828;28;20316;-65
2021/09/22 04:47:22;;;;;;;;;;;5.10;99.90;;;;;;8341114;28;19966;-65
2021/09/22 04:51:22;;;;;;;;;;;4.70;99.90;;;;;;8353482;28;19977;-65
2021/09/22 04:55:23;;;;;;;;;;;5.00;99.90;;;;;;8362387;28;19908;-65
2021/09/22 04:59:24;;;;;;;;;;;4.90;99.90;;;;;;8360099;28;19904;-65
2021/09/22 05:03:24;;;;;;;;;;;5.00;99.90;;;;;;8361356;28;19904;-65
2021/09/22 05:07:25;;;;;;;;;;;5.10;99.90;;;;;;8361953;28;19919;-65
2021/09/22 05:11:26;;;;;;;;;;;4.90;99.90;;;;;;8344474;28;19914;-65
2021/09/22 05:15:26;;;;;;;;;;;4.80;99.90;;;;;;8344191;28;19952;-65
2021/09/22 05:19:27;;;;;;;;;;;4.80;99.90;;;;;;8362154;28;19905;-65
2021/09/22 05:23:28;;;;;;;;;;;4.90;99.90;;;;;;8362182;28;20296;-65
2021/09/22 05:27:28;;;;;;;;;;;4.70;99.90;;;;;;8361523;28;19947;-65
2021/09/22 05:31:29;;;;;;;;;;;4.80;99.90;;;;;;8343625;28;19909;-65
2021/09/22 05:35:30;;;;;;;;;;;4.80;99.90;;;;;;8361687;28;19959;-65
2021/09/22 05:39:30;;;;;;;;;;;5.00;99.90;;;;;;8361670;28;20528;-65
2021/09/22 05:43:30;;;;;;;;;;;5.10;99.90;;;;;;8360478;28;19911;-65
2021/09/22 05:47:31;;;;;;;;;;;5.10;99.90;;;;;;8356872;28;19991;-65
2021/09/22 05:51:32;;;;;;;;;;;5.10;99.90;;;;;;8328118;28;19909;-65
2021/09/22 05:55:32;;;;;;;;;;;5.30;99.90;;;;;;8327890;28;20007;-65
2021/09/22 05:59:33;;;;;;;;;;;5.30;99.90;;;;;;8327888;28;20650;-65
2021/09/22 06:03:34;;;;;;;;;;;5.30;99.90;;;;;;8326843;28;19928;-65
2021/09/22 06:07:35;;;;;;;;;;;5.40;99.90;;;;;;8342914;28;19920;-65
2021/09/22 06:11:35;;;;;;;;;;;5.60;99.90;;;;;;8325583;28;19908;-65
2021/09/22 06:15:36;;;;;;;;;;;5.60;99.90;;;;;;8312169;28;19991;-65
2021/09/22 06:19:36;;;;;;;;;;;5.90;99.90;;;;;;8309368;28;19988;-65
2021/09/22 06:23:37;;;;;;;;;;;6.00;99.90;;;;;;8327215;28;20273;-65
2021/09/22 06:27:37;;;;;;;;;;;6.10;99.90;;;;;;8326708;28;19948;-65
2021/09/22 06:31:38;;;;;;;;;;;6.30;99.90;;;;;;8326898;28;19932;-65
2021/09/22 06:35:39;;;;;;;;;;;6.50;99.90;;;;;;8326911;28;20373;-65
2021/09/22 06:39:39;;;;;;;;;;;6.80;99.90;;;;;;8326931;28;19912;-65
2021/09/22 06:43:39;;;;;;;;;;;7.10;99.90;;;;;;8326732;28;19908;-65
2021/09/22 06:47:40;;;;;;;;;;;7.50;99.90;;;;;;8326172;28;19909;-65
2021/09/22 06:51:40;;;;;;;;;;;7.80;99.90;;;;;;8326575;28;19920;-65
2021/09/22 06:55:41;;;;;;;;;;;7.70;99.90;;;;;;8326250;28;19909;-65
2021/09/22 06:59:41;;;;;;;;;;;7.80;99.90;;;;;;8329112;28;19916;-65
2021/09/22 07:03:42;;;;;;;;;;;8.00;99.90;;;;;;8323523;28;19909;-65
2021/09/22 07:07:46;;;;;;;;;;;8.10;99.90;;;;;;8338007;28;19913;-65
2021/09/22 07:11:46;;;;;;;;;;;8.30;99.90;;;;;;8341377;28;19913;-65
2021/09/22 07:15:47;;;;;;;;;;;8.70;99.90;;;;;;8341333;28;19904;-65
2021/09/22 07:19:47;;;;;;;;;;;8.90;99.90;;;;;;8342088;28;19951;-65
2021/09/22 07:23:48;;;;;;;;;;;9.00;99.90;;;;;;8341815;28;19912;-63
2021/09/22 07:27:48;;;;;;;;;;;9.10;99.90;;;;;;8340924;28;19912;-63
2021/09/22 07:31:49;;;;;;;;;;;9.30;99.90;;;;;;8341611;28;20273;-63
2021/09/22 07:35:49;;;;;;;;;;;9.60;99.90;;;;;;8341582;28;20482;-63
2021/09/22 07:39:50;;;;;;;;;;;10.00;99.90;;;;;;8341504;28;19915;-63
2021/09/22 07:43:50;;;;;;;;;;;10.20;99.90;;;;;;8341320;28;19912;-63
2021/09/22 07:47:51;;;;;;;;;;;10.60;99.90;;;;;;8340919;28;19963;-63
2021/09/22 07:51:51;;;;;;;;;;;11.00;99.90;;;;;;8341378;28;19972;-63
2021/09/22 07:55:52;;;;;;;;;;;11.10;99.90;;;;;;8341088;28;19921;-63
2021/09/22 07:59:52;;;;;;;;;;;11.30;99.90;;;;;;8341241;28;20393;-63
2021/09/22 08:03:53;;;;;;;;;;;11.60;99.90;;;;;;8340809;28;19912;-63
2021/09/22 08:07:53;;;;;;;;;;;11.70;99.90;;;;;;8344115;28;19913;-63
2021/09/22 08:11:54;;;;;;;;;;;11.90;99.90;;;;;;8346872;28;19913;-63
2021/09/22 08:15:54;;;;;;;;;;;12.30;99.90;;;;;;8346799;28;20389;-63
2021/09/22 08:19:55;;;;;;;;;;;12.80;99.90;;;;;;8346655;28;19913;-63
2021/09/22 08:23:55;;;;;;;;;;;13.20;99.90;;;;;;8346628;28;19937;-63
2021/09/22 08:27:56;;;;;;;;;;;13.40;99.90;;;;;;8345581;28;20361;-63
2021/09/22 08:31:56;;;;;;;;;;;14.00;99.90;;;;;;8346087;28;19924;-64
2021/09/22 08:35:57;;;;;;;;;;;14.50;99.90;;;;;;8345380;28;19905;-65
2021/09/22 08:39:57;;;;;;;;;;;14.70;99.90;;;;;;8344826;28;19915;-65
2021/09/22 08:44:03;;;;;;;;;;;15.00;99.90;;;;;;8344915;28;20297;-65
2021/09/22 08:48:04;;;;;;;;;;;15.20;99.90;;;;;;8345436;28;19909;-65
2021/09/22 08:52:04;;;;;;;;;;;15.40;99.90;;;;;;8327780;28;19916;-64
2021/09/22 08:56:05;;;;;;;;;;;15.60;99.90;;;;;;8344327;28;20290;-64
2021/09/22 09:00:07;;;;;;;;;;;16.00;99.90;;;;;;8344560;28;19904;-64
2021/09/22 09:04:14;;;;;;;;;;;16.50;99.90;;;;;;8343549;28;19912;-65
2021/09/22 09:08:15;;;;;;;;;;;17.00;99.90;;;;;;8344290;28;20396;-64
2021/09/22 09:12:20;;;;;;;;;;;17.20;99.90;;;;;;8344799;28;19935;-64
2021/09/22 09:16:25;;;;;;;;;;;17.30;99.90;;;;;;8350265;28;19904;-64
2021/09/22 09:20:27;;;;;;;;;;;17.50;99.90;;;;;;8333033;28;19940;-64
2021/09/22 09:24:31;;;;;;;;;;;17.50;99.90;;;;;;8328917;28;20430;-64
2021/09/22 09:28:33;;;;;;;;;;;17.50;99.90;;;;;;8328574;28;19995;-65
2021/09/22 09:32:33;;;;;;;;;;;17.20;99.90;;;;;;8328800;28;19909;-64
2021/09/22 09:36:34;;;;;;;;;;;17.10;99.90;;;;;;8328329;28;20004;-64
2021/09/22 09:40:36;;;;;;;;;;;16.80;99.90;;;;;;8320209;28;19909;-64
2021/09/22 09:44:36;;;;;;;;;;;16.90;99.90;;;;;;8343427;28;20403;-64
2021/09/22 09:48:37;;;;;;;;;;;17.10;99.90;;;;;;8330912;28;19917;-64
2021/09/22 09:52:57;;;;;;;;;;;16.90;99.90;;;;;;8325929;28;19909;-64
2021/09/22 09:57:08;;;;;;;;;;;16.70;99.90;;;;;;8343201;28;19908;-64
2021/09/22 10:01:09;;;;;;;;;;;17.20;99.90;;;;;;8343929;28;19913;-64
2021/09/22 10:05:09;;;;;;;;;;;17.20;99.90;;;;;;8342990;28;19963;-64
2021/09/22 10:09:11;;;;;;;;;;;17.60;99.90;;;;;;8356724;28;19927;-64
2021/09/22 10:13:12;;;;;;;;;;;17.40;99.90;;;;;;8342769;28;19951;-64
2021/09/22 10:17:16;;;;;;;;;;;17.40;99.90;;;;;;8340460;28;20628;-64
2021/09/22 10:21:18;;;;;;;;;;;17.60;99.90;;;;;;8339360;28;20392;-64
2021/09/22 10:25:21;;;;;;;;;;;17.60;99.90;;;;;;8359401;28;19908;-65
2021/09/22 10:29:25;;;;;;;;;;;17.60;99.90;;;;;;8329199;28;19963;-64
2021/09/22 10:33:26;;;;;;;;;;;18.00;99.90;;;;;;8336157;28;20451;-65
2021/09/22 10:37:31;;;;;;;;;;;18.60;99.90;;;;;;8356020;28;19909;-64
2021/09/22 10:41:37;;;;;;;;;;;19.00;99.90;;;;;;8356475;28;20287;-64
2021/09/22 10:45:37;;;;;;;;;;;19.20;99.90;;;;;;8358951;28;20368;-64
2021/09/22 10:49:38;;;;;;;;;;;20.40;99.90;;;;;;8343712;28;19913;-65
2021/09/22 10:53:39;;;;;;;;;;;;;;;;;;8335899;28;19958;-65
2021/09/22 10:57:40;;;;;;;;;;;24.20;94.30;;;;;;8358656;28;20349;-65
2021/09/22 11:01:41;;;;;;;;;;;25.70;86.60;;;;;;8330958;28;19967;-65
2021/09/22 11:05:44;;;;;;;;;;;27.20;82.20;;;;;;8351814;28;19905;-65
2021/09/22 11:09:45;;;;;;;;;;;28.70;71.50;;;;;;8358507;28;19913;-66
2021/09/22 11:13:46;;;;;;;;;;;30.20;61.50;;;;;;8358396;28;20461;-65
2021/09/22 11:17:47;;;;;;;;;;;31.00;56.80;;;;;;8351178;28;20457;-65
2021/09/22 11:21:48;;;;;;;;;;;30.30;54.70;;;;;;8341480;28;19959;-65
2021/09/22 11:25:49;;;;;;;;;;;30.80;54.60;;;;;;8324638;28;19919;-65
2021/09/22 11:29:54;;;;;;;;;;;31.30;50.80;;;;;;8345651;28;20327;-65
2021/09/22 11:33:58;;;;;;;;;;;30.80;50.80;;;;;;8321947;28;19913;-65
2021/09/22 11:37:59;;;;;;;;;;;31.40;47.60;;;;;;8324504;28;19912;-65
2021/09/22 11:42:00;;;;;;;;;;;31.60;48.40;;;;;;8343517;28;19905;-64
2021/09/22 11:46:01;;;;;;;;;;;30.70;49.30;;;;;;8347366;28;19971;-64
2021/09/22 11:50:02;;;;;;;;;;;30.70;47.80;;;;;;8345320;28;19917;-65
2021/09/22 11:54:15;;;;;;;;;;;31.90;48.20;;;;;;8347474;28;19909;-65
2021/09/22 11:58:21;;;;;;;;;;;32.40;45.20;;;;;;8344814;28;19909;-65
2021/09/22 12:02:26;;;;;;;;;;;33.10;42.80;;;;;;8332002;28;19916;-65
2021/09/22 12:06:27;;;;;;;;;;;33.90;42.30;;;;;;8335111;28;20438;-65
2021/09/22 12:10:28;;;;;;;;;;;33.90;40.20;;;;;;8364280;28;20000;-64
2021/09/22 12:14:28;;;;;;;;;;;32.80;42.90;;;;;;8363803;28;20510;-64
2021/09/22 12:18:29;;;;;;;;;;;31.90;44.90;;;;;;8346005;28;20395;-64
2021/09/22 12:22:31;;;;;;;;;;;30.50;44.60;;;;;;8343488;28;19916;-64
2021/09/22 12:26:32;;;;;;;;;;;29.90;47.60;;;;;;8363306;28;19909;-64
2021/09/22 12:30:37;;;;;;;;;;;29.80;46.70;;;;;;8363301;28;20411;-64
2021/09/22 12:34:42;;;;;;;;;;;29.30;47.10;;;;;;8362701;28;19909;-64
2021/09/22 12:38:47;;;;;;;;;;;30.30;47.60;;;;;;8362959;28;20717;-65
2021/09/22 12:42:48;;;;;;;;;;;33.40;43.20;;;;;;8345267;28;19904;-65
2021/09/22 12:46:48;;;;;;;;;;;35.90;38.70;;;;;;8363069;28;19905;-65
2021/09/22 12:50:49;;;;;;;;;;;36.70;38.50;;;;;;8362763;28;19908;-65
2021/09/22 12:54:49;;;;;;;;;;;36.70;38.00;;;;;;8362217;28;19904;-65
2021/09/22 12:58:50;;;;;;;;;;;36.70;35.40;;;;;;8363046;28;20369;-65
2021/09/22 13:03:05;;;;;;;;;;;37.10;35.40;;;;;;8362003;28;19913;-65
2021/09/22 13:07:07;;;;;;;;;;;35.90;36.90;;;;;;8360437;28;20473;-64
2021/09/22 13:11:08;;;;;;;;;;;33.20;41.40;;;;;;8360988;28;20002;-64
2021/09/22 13:15:22;;;;;;;;;;;34.30;39.40;;;;;;8358732;28;19920;-64
2021/09/22 13:19:24;;;;;;;;;;;35.40;37.20;;;;;;8356630;28;19912;-64
2021/09/22 13:23:25;;;;;;;;;;;35.10;36.90;;;;;;8356798;28;19951;-64
2021/09/22 13:27:25;;;;;;;;;;;34.50;39.80;;;;;;8341043;28;20375;-65
2021/09/22 13:31:26;;;;;;;;;;;34.60;40.00;;;;;;8327179;28;19965;-65
2021/09/22 13:35:27;;;;;;;;;;;33.10;41.00;;;;;;8361401;28;19908;-64
2021/09/22 13:39:27;;;;;;;;;;;30.30;45.60;;;;;;8325336;28;19917;-65
2021/09/22 13:43:29;;;;;;;;;;;30.90;45.40;;;;;;8340892;28;19916;-65
2021/09/22 13:47:29;;;;;;;;;;;34.30;42.20;;;;;;8343911;28;19917;-65
2021/09/22 13:51:30;;;;;;;;;;;35.40;39.10;;;;;;8339700;28;20387;-65
2021/09/22 13:55:30;;;;;;;;;;;34.40;39.70;;;;;;8341853;28;19917;-64
2021/09/22 13:59:31;;;;;;;;;;;33.60;41.10;;;;;;8340152;28;19912;-64
2021/09/22 14:03:32;;;;;;;;;;;35.20;39.50;;;;;;8340384;28;19915;-64
2021/09/22 14:07:32;;;;;;;;;;;35.90;38.00;;;;;;8330070;28;20368;-64
2021/09/22 14:11:33;;;;;;;;;;;35.90;37.20;;;;;;8333097;28;19913;-64
2021/09/22 14:15:37;;;;;;;;;;;34.10;39.10;;;;;;8335054;28;19931;-64
2021/09/22 14:19:38;;;;;;;;;;;33.50;39.20;;;;;;8333155;28;19923;-64
2021/09/22 14:23:38;;;;;;;;;;;33.70;40.90;;;;;;8335878;28;20588;-64
2021/09/22 14:27:39;;;;;;;;;;;34.40;39.80;;;;;;8340862;28;19909;-65
2021/09/22 14:31:39;;;;;;;;;;;34.60;38.60;;;;;;8340984;28;19908;-64
2021/09/22 14:35:41;;;;;;;;;;;31.00;44.20;;;;;;8340300;28;19974;-64
2021/09/22 14:39:41;;;;;;;;;;;28.50;49.40;;;;;;8355034;28;19951;-64
2021/09/22 14:43:42;;;;;;;;;;;28.10;50.50;;;;;;8335532;28;19916;-64
2021/09/22 14:47:43;;;;;;;;;;;28.00;51.10;;;;;;8358792;28;20601;-64
2021/09/22 14:51:43;;;;;;;;;;;28.50;51.40;;;;;;8358978;28;19954;-64
2021/09/22 14:55:44;;;;;;;;;;;29.50;48.80;;;;;;8353224;28;20304;-64
2021/09/22 14:59:44;;;;;;;;;;;29.20;48.30;;;;;;8332125;28;19905;-64
2021/09/22 15:03:45;;;;;;;;;;;28.20;49.70;;;;;;8333616;28;19979;-64
2021/09/22 15:07:46;;;;;;;;;;;27.60;51.80;;;;;;8325827;28;19920;-64
2021/09/22 15:11:46;;;;;;;;;;;27.60;52.50;;;;;;8326312;28;19955;-64
2021/09/22 15:15:47;;;;;;;;;;;27.70;52.50;;;;;;8308649;28;20352;-64
2021/09/22 15:19:47;;;;;;;;;;;27.50;52.00;;;;;;8347979;28;19915;-64
2021/09/22 15:23:48;;;;;;;;;;;27.40;54.00;;;;;;8351974;28;20004;-64
2021/09/22 15:27:49;;;;;;;;;;;27.50;54.30;;;;;;8347894;28;19912;-64
2021/09/22 15:31:49;;;;;;;;;;;27.50;53.50;;;;;;8347860;28;19909;-64
2021/09/22 15:35:50;;;;;;;;;;;27.10;52.40;;;;;;8350899;28;20472;-64
2021/09/22 15:39:51;;;;;;;;;;;26.60;54.60;;;;;;8339984;28;20285;-65
2021/09/22 15:43:54;;;;;;;;;;;26.90;54.00;;;;;;8314506;28;19913;-65
2021/09/22 15:47:55;;;;;;;;;;;;;;;;;;8339241;28;19951;-64
2021/09/22 15:51:56;;;;;;;;;;;27.10;53.00;;;;;;8358836;28;19909;-65
2021/09/22 15:55:56;;;;;;;;;;;27.10;53.80;;;;;;8365168;28;20300;-65
2021/09/22 15:59:57;;;;;;;;;;;27.20;53.50;;;;;;8342108;28;19909;-65
2021/09/22 16:03:57;;;;;;;;;;;26.90;53.90;;;;;;8352515;28;19909;-64
2021/09/22 16:07:59;;;;;;;;;;;26.60;55.70;;;;;;8363814;28;19919;-64
2021/09/22 16:12:00;;;;;;;;;;;25.60;57.40;;;;;;8332977;28;19959;-64
2021/09/22 16:16:01;;;;;;;;;;;24.80;58.90;;;;;;8336148;28;20365;-64
2021/09/22 16:20:02;;;;;;;;;;;23.60;62.70;;;;;;8362667;28;19920;-64
2021/09/22 16:24:03;;;;;;;;;;;22.70;66.20;;;;;;8354631;28;19912;-64
2021/09/22 16:28:04;;;;;;;;;;;21.70;70.50;;;;;;8352615;28;19963;-64
2021/09/22 16:32:06;;;;;;;;;;;21.30;79.90;;;;;;8326429;28;20008;-63
2021/09/22 16:36:07;;;;;;;;;;;20.70;74.00;;;;;;8346883;28;20293;-63
2021/09/22 16:40:08;;;;;;;;;;;19.50;84.00;;;;;;8339258;28;19909;-63
2021/09/22 16:44:09;;;;;;;;;;;18.60;91.50;;;;;;8329145;28;19909;-64
2021/09/22 16:48:09;;;;;;;;;;;17.80;96.30;;;;;;8326730;28;19916;-64
2021/09/22 16:52:10;;;;;;;;;;;17.20;99.90;;;;;;8349455;28;20368;-64
2021/09/22 16:56:11;;;;;;;;;;;;;;;;;;8337458;28;19913;-64
2021/09/22 17:00:12;;;;;;;;;;;16.70;99.90;;;;;;8347042;28;19967;-64
2021/09/22 17:04:13;;;;;;;;;;;16.50;99.90;;;;;;8362428;28;20331;-64
2021/09/22 17:08:14;;;;;;;;;;;16.30;99.90;;;;;;8357053;28;19936;-64
2021/09/22 17:12:14;;;;;;;;;;;15.90;99.90;;;;;;8325796;28;19986;-64
2021/09/22 17:16:15;;;;;;;;;;;15.30;99.90;;;;;;8343902;28;20167;-64
2021/09/22 17:20:15;;;;;;;;;;;14.70;99.90;;;;;;8318341;28;20353;-64
2021/09/22 17:24:17;;;;;;;;;;;14.40;99.90;;;;;;8340153;28;20368;-64
2021/09/22 17:28:17;;;;;;;;;;;14.00;99.90;;;;;;8353814;28;19935;-64
2021/09/22 17:32:18;;;;;;;;;;;13.70;99.90;;;;;;8342875;28;20336;-64
2021/09/22 17:36:19;;;;;;;;;;;13.40;99.90;;;;;;8321995;28;20549;-64
2021/09/22 17:40:20;;;;;;;;;;;13.20;99.90;;;;;;8331399;28;19909;-64
2021/09/22 17:44:20;;;;;;;;;;;12.90;99.90;;;;;;8340073;28;19912;-64
2021/09/22 17:48:21;;;;;;;;;;;12.70;99.90;;;;;;8310428;28;19923;-64
2021/09/22 17:52:22;;;;;;;;;;;12.50;99.90;;;;;;8341347;28;19921;-64
2021/09/22 17:56:23;;;;;;;;;;;12.20;99.90;;;;;;8350075;28;19915;-64
2021/09/22 18:00:24;;;;;;;;;;;12.30;99.90;;;;;;8325767;28;19952;-65
2021/09/22 18:04:24;;;;;;;;;;;12.10;99.90;;;;;;8327399;28;19909;-64
2021/09/22 18:08:25;;;;;;;;;;;12.40;99.90;;;;;;8340664;28;19979;-64
2021/09/22 18:12:26;;;;;;;;;;;12.10;99.90;;;;;;8321566;28;19913;-65
2021/09/22 18:16:27;;;;;;;;;;;11.80;99.90;;;;;;8333482;28;19913;-65
2021/09/22 18:20:27;;;;;;;;;;;11.60;99.90;;;;;;8314906;28;21583;-65
2021/09/22 18:24:30;;;;;;;;;;;11.60;99.90;;;;;;8323161;28;20004;-65
2021/09/22 18:28:31;;;;;;;;;;;11.40;99.90;;;;;;8331405;28;19913;-64
2021/09/22 18:32:31;;;;;;;;;;;11.70;99.90;;;;;;8329056;28;20389;-65
2021/09/22 18:36:32;;;;;;;;;;;11.50;99.90;;;;;;8321917;28;20418;-65
2021/09/22 18:40:32;;;;;;;;;;;11.40;99.90;;;;;;8328020;28;19913;-65
2021/09/22 18:44:33;;;;;;;;;;;11.40;99.90;;;;;;8336203;28;19936;-65
2021/09/22 18:48:34;;;;;;;;;;;11.10;99.90;;;;;;8341442;28;19905;-65
2021/09/22 18:52:34;;;;;;;;;;;10.90;99.90;;;;;;8311134;28;19956;-65
2021/09/22 18:56:35;;;;;;;;;;;10.70;99.90;;;;;;8329998;28;19944;-65
2021/09/22 19:00:35;;;;;;;;;;;10.90;99.90;;;;;;8306437;28;19913;-65
2021/09/22 19:04:36;;;;;;;;;;;10.90;99.90;;;;;;8335828;28;19915;-65
2021/09/22 19:08:36;;;;;;;;;;;10.70;99.90;;;;;;8332919;28;19913;-65
2021/09/22 19:12:37;;;;;;;;;;;10.60;99.90;;;;;;8333794;28;20011;-65
2021/09/22 19:16:38;;;;;;;;;;;10.50;99.90;;;;;;8308577;28;20657;-65
2021/09/22 19:20:39;;;;;;;;;;;10.50;99.90;;;;;;8339613;28;19913;-65
2021/09/22 19:24:39;;;;;;;;;;;10.30;99.90;;;;;;8341726;28;19912;-64
2021/09/22 19:28:40;;;;;;;;;;;10.30;99.90;;;;;;8345473;28;19944;-65
2021/09/22 19:32:41;;;;;;;;;;;10.50;99.90;;;;;;8339114;28;19917;-64
2021/09/22 19:36:41;;;;;;;;;;;10.20;99.90;;;;;;8322843;28;19939;-65
2021/09/22 19:40:42;;;;;;;;;;;9.90;99.90;;;;;;8321516;28;19916;-64
2021/09/22 19:44:43;;;;;;;;;;;9.80;99.90;;;;;;8340259;28;19919;-65
2021/09/22 19:48:44;;;;;;;;;;;9.60;99.90;;;;;;8322925;28;19912;-65
2021/09/22 19:52:45;;;;;;;;;;;9.60;99.90;;;;;;8336709;28;19912;-65
2021/09/22 19:56:46;;;;;;;;;;;9.50;99.90;;;;;;8336770;28;20407;-65
2021/09/22 20:00:47;;;;;;;;;;;9.80;99.90;;;;;;8340936;28;19913;-66
2021/09/22 20:04:48;;;;;;;;;;;9.60;99.90;;;;;;8347701;28;19921;-65
2021/09/22 20:08:49;;;;;;;;;;;9.40;99.90;;;;;;8340432;28;19921;-65
2021/09/22 20:12:49;;;;;;;;;;;9.40;99.90;;;;;;8344560;28;20365;-65
2021/09/22 20:16:50;;;;;;;;;;;9.40;99.90;;;;;;8346031;28;20328;-65
2021/09/22 20:20:51;;;;;;;;;;;9.60;99.90;;;;;;8349361;28;19966;-65
2021/09/22 20:24:51;;;;;;;;;;;9.40;99.90;;;;;;8346209;28;20300;-65
2021/09/22 20:28:52;;;;;;;;;;;9.20;99.90;;;;;;8340958;28;19992;-65
2021/09/22 20:32:53;;;;;;;;;;;9.10;99.90;;;;;;8311766;28;19909;-65
2021/09/22 20:36:53;;;;;;;;;;;8.90;99.90;;;;;;8329908;28;19905;-65
2021/09/22 20:40:54;;;;;;;;;;;8.80;99.90;;;;;;8329516;28;20003;-65
2021/09/22 20:44:54;;;;;;;;;;;8.60;99.90;;;;;;8312044;28;19999;-65
2021/09/22 20:48:55;;;;;;;;;;;8.60;99.90;;;;;;8329898;28;20408;-65
2021/09/22 20:52:55;;;;;;;;;;;8.50;99.90;;;;;;8312043;28;20385;-65
2021/09/22 20:56:56;;;;;;;;;;;8.70;99.90;;;;;;8329526;28;19915;-65
2021/09/22 21:00:56;;;;;;;;;;;8.70;99.90;;;;;;8329807;28;20407;-65
2021/09/22 21:04:57;;;;;;;;;;;8.50;99.90;;;;;;8329150;28;19947;-65
2021/09/22 21:08:57;;;;;;;;;;;8.40;99.90;;;;;;8329051;28;20411;-65
2021/09/22 21:12:59;;;;;;;;;;;8.50;99.90;;;;;;8329205;28;19905;-65
2021/09/22 21:16:59;;;;;;;;;;;8.40;99.90;;;;;;8328948;28;20381;-65
2021/09/22 21:21:00;;;;;;;;;;;8.40;99.90;;;;;;8329010;28;19917;-65
2021/09/22 21:25:00;;;;;;;;;;;8.30;99.90;;;;;;8310120;28;19916;-65
2021/09/22 21:29:01;;;;;;;;;;;8.30;99.90;;;;;;8328760;28;19967;-65
2021/09/22 21:33:01;;;;;;;;;;;8.20;99.90;;;;;;8328646;28;19908;-65
2021/09/22 21:37:02;;;;;;;;;;;8.30;99.90;;;;;;8327910;28;19909;-65
2021/09/22 21:41:02;;;;;;;;;;;8.30;99.90;;;;;;8328288;28;20381;-65
2021/09/22 21:45:03;;;;;;;;;;;8.30;99.90;;;;;;8310079;28;19940;-65
2021/09/22 21:49:03;;;;;;;;;;;8.10;99.90;;;;;;8327946;28;20000;-65
2021/09/22 21:53:04;;;;;;;;;;;8.00;99.90;;;;;;8328172;28;20293;-65
2021/09/22 21:57:04;;;;;;;;;;;8.00;99.90;;;;;;8327683;28;20278;-65
2021/09/22 22:01:05;;;;;;;;;;;7.80;99.90;;;;;;8310132;28;19916;-65
2021/09/22 22:05:05;;;;;;;;;;;7.60;99.90;;;;;;8327339;28;19905;-65
2021/09/22 22:09:06;;;;;;;;;;;7.70;99.90;;;;;;8327297;28;19913;-65
2021/09/22 22:13:07;;;;;;;;;;;7.70;99.90;;;;;;8309680;28;19908;-65
2021/09/22 22:17:08;;;;;;;;;;;8.00;99.90;;;;;;8343594;23;19889;-62
2021/09/22 22:21:08;;;;;;;;;;;8.00;99.90;;;;;;8359534;28;19923;-63
2021/09/22 22:25:10;;;;;;;;;;;7.80;99.90;;;;;;8358851;28;19905;-63
2021/09/22 22:29:12;;;;;;;;;;;7.80;99.90;;;;;;8340010;28;19909;-63
2021/09/22 22:33:15;;;;;;;;;;;7.70;99.90;;;;;;8327201;28;20408;-63
2021/09/22 22:37:19;;;;;;;;;;;7.60;99.90;;;;;;8326606;28;20357;-63
2021/09/22 22:41:20;;;;;;;;;;;7.50;99.90;;;;;;8326810;28;19909;-63
2021/09/22 22:45:20;;;;;;;;;;;7.40;99.90;;;;;;8325444;28;19916;-62
2021/09/22 22:49:21;;;;;;;;;;;7.50;99.90;;;;;;8326200;28;20440;-62
2021/09/22 22:53:21;;;;;;;;;;;7.60;99.90;;;;;;8326345;28;20415;-62
2021/09/22 22:57:22;;;;;;;;;;;7.70;99.90;;;;;;8326128;28;19905;-62
2021/09/22 23:01:22;;;;;;;;;;;7.50;99.90;;;;;;8326187;28;19909;-63
2021/09/22 23:05:23;;;;;;;;;;;7.50;99.90;;;;;;8325776;28;20516;-63
2021/09/22 23:09:23;;;;;;;;;;;7.30;99.90;;;;;;8325731;28;19936;-63
2021/09/22 23:13:24;;;;;;;;;;;7.10;99.90;;;;;;8326036;28;19905;-64
2021/09/22 23:17:50;;;;;;;;;;;7.20;99.90;;;;;;8325515;28;19909;-63
2021/09/22 23:25:54;;;;;;;;;;;7.10;99.90;;;;;;8325480;28;19905;-64
2021/09/22 23:29:54;;;;;;;;;;;7.10;99.90;;;;;;8325585;28;19950;-64
2021/09/22 23:33:54;;;;;;;;;;;7.20;99.90;;;;;;8325488;28;20373;-64
2021/09/22 23:37:56;;;;;;;;;;;7.00;99.90;;;;;;8327416;28;19905;-64